Time;durP1;ratioP1;P1;durP2;ratioP2;P2;SDS_P1;SDS_P2;PMS_P1;PMS_P2;Temp;Humidity;BMP_temperature;BMP_pressure;BME280_temperature;BME280_humidity;BME280_pressure;Samples;Min_cycle;Max_cycle;Signal;HPM_P1;HPM_P2
2021/11/10 00:01:51;;;;;;;7.68;3.40;;;19.80;44.10;;;;;;4922372;29;20601;-49
2021/11/10 00:04:18;;;;;;;8.00;3.65;;;19.90;44.20;;;;;;4922563;29;20039;-51
2021/11/10 00:06:44;;;;;;;8.57;3.45;;;19.90;44.20;;;;;;4922764;29;20024;-49
2021/11/10 00:09:09;;;;;;;7.93;3.25;;;19.80;44.20;;;;;;4922675;29;20504;-49
2021/11/10 00:11:35;;;;;;;7.55;3.20;;;19.80;44.10;;;;;;4922716;29;20028;-49
2021/11/10 00:14:01;;;;;;;6.65;3.30;;;19.80;44.20;;;;;;4922561;29;20031;-50
2021/11/10 00:16:27;;;;;;;6.53;3.13;;;19.80;44.10;;;;;;4919146;29;20028;-49
2021/11/10 00:18:55;;;;;;;6.93;3.45;;;19.80;44.10;;;;;;4918087;29;20035;-49
2021/11/10 00:21:22;;;;;;;7.50;3.22;;;19.80;44.10;;;;;;4919445;29;20078;-48
2021/11/10 00:23:47;;;;;;;8.52;4.07;;;19.80;44.00;;;;;;4919540;29;20436;-48
2021/11/10 00:26:13;;;;;;;10.13;4.03;;;19.80;44.00;;;;;;4919348;29;20047;-49
2021/11/10 00:28:39;;;;;;;7.63;3.15;;;19.80;44.00;;;;;;4919422;29;20034;-49
2021/11/10 00:31:05;;;;;;;6.70;3.40;;;19.80;44.00;;;;;;4919509;29;20543;-51
2021/11/10 00:33:30;;;;;;;7.78;3.67;;;19.80;44.00;;;;;;4919420;29;20060;-49
2021/11/10 00:35:56;;;;;;;6.75;3.30;;;19.80;43.90;;;;;;4919439;29;20490;-52
2021/11/10 00:38:21;;;;;;;8.57;3.70;;;19.80;43.90;;;;;;4919354;29;20036;-53
2021/11/10 00:40:47;;;;;;;7.45;3.70;;;19.80;44.00;;;;;;4919075;29;20028;-49
2021/11/10 00:43:13;;;;;;;7.20;3.38;;;19.80;43.90;;;;;;4919297;29;20063;-52
2021/11/10 00:45:38;;;;;;;7.22;3.33;;;19.80;44.00;;;;;;4919163;29;20056;-54
2021/11/10 00:48:05;;;;;;;6.85;3.50;;;19.80;43.80;;;;;;4919179;29;20028;-55
2021/11/10 00:50:31;;;;;;;6.35;3.75;;;19.80;43.90;;;;;;4919113;29;20115;-48
2021/11/10 00:52:57;;;;;;;7.32;3.33;;;19.80;43.80;;;;;;4919033;29;20396;-52
2021/11/10 00:55:24;;;;;;;7.78;3.65;;;19.70;43.90;;;;;;4918821;29;20020;-52
2021/11/10 00:57:50;;;;;;;7.82;3.50;;;19.70;43.90;;;;;;4918996;29;20400;-53
2021/11/10 01:00:16;;;;;;;7.88;3.72;;;19.80;43.90;;;;;;4919027;29;20111;-49
2021/11/10 01:02:42;;;;;;;6.93;3.50;;;19.70;43.80;;;;;;4918331;29;20204;-52
2021/11/10 01:05:08;;;;;;;8.73;3.55;;;19.80;43.80;;;;;;4918600;29;20035;-49
2021/11/10 01:07:34;;;;;;;8.85;3.95;;;19.70;43.80;;;;;;4918735;29;20032;-48
2021/11/10 01:10:02;;;;;;;7.25;3.58;;;19.70;43.80;;;;;;4918657;29;20024;-48
2021/11/10 01:12:28;;;;;;;6.80;3.70;;;19.80;43.80;;;;;;4918755;29;20027;-49
2021/11/10 01:14:54;;;;;;;9.63;4.03;;;19.70;43.80;;;;;;4918742;29;20048;-50
2021/11/10 01:17:20;;;;;;;7.45;3.90;;;19.70;43.80;;;;;;4918339;29;20079;-50
2021/11/10 01:19:45;;;;;;;6.85;3.30;;;19.70;43.70;;;;;;4918306;29;20036;-48
2021/11/10 01:22:11;;;;;;;7.90;3.65;;;19.70;43.70;;;;;;4918485;29;20024;-50
2021/11/10 01:24:37;;;;;;;9.07;3.67;;;19.70;43.70;;;;;;4918305;29;20027;-49
2021/11/10 01:27:03;;;;;;;7.10;3.35;;;19.70;43.70;;;;;;4917972;29;20111;-49
2021/11/10 01:29:28;;;;;;;6.82;2.90;;;19.70;43.70;;;;;;4918160;29;20086;-53
2021/11/10 01:31:54;;;;;;;8.45;3.88;;;19.70;43.70;;;;;;4918350;29;20027;-49
2021/11/10 01:34:19;;;;;;;7.53;3.63;;;19.70;43.60;;;;;;4918324;29;20072;-50
2021/11/10 01:36:45;;;;;;;7.03;3.00;;;19.70;43.60;;;;;;4917975;29;20055;-48
2021/11/10 01:39:11;;;;;;;7.20;3.15;;;19.70;43.70;;;;;;4918052;29;20035;-48
2021/11/10 01:41:46;;;;;;;9.57;4.20;;;19.70;43.60;;;;;;4918217;29;20476;-48
2021/11/10 01:44:23;;;;;;;8.23;3.55;;;19.70;43.60;;;;;;4917974;29;20024;-49
2021/11/10 01:46:50;;;;;;;8.27;3.83;;;19.70;43.60;;;;;;4917860;29;20067;-49
2021/11/10 01:49:16;;;;;;;8.35;3.53;;;19.70;43.60;;;;;;4918149;29;20055;-49
2021/11/10 01:51:49;;;;;;;7.13;3.45;;;19.70;43.50;;;;;;4917950;29;20067;-50
2021/11/10 01:54:15;;;;;;;6.00;3.03;;;19.70;43.50;;;;;;4917806;29;20035;-53
2021/11/10 01:56:41;;;;;;;7.43;3.75;;;19.70;43.50;;;;;;4917915;29;20039;-48
2021/11/10 01:59:07;;;;;;;8.40;3.80;;;19.70;43.40;;;;;;4917754;29;20040;-49
2021/11/10 02:01:42;;;;;;;6.30;2.88;;;19.70;43.50;;;;;;4917389;29;20031;-54
2021/11/10 02:04:08;;;;;;;6.32;3.05;;;19.70;43.40;;;;;;4917633;29;20036;-53
2021/11/10 02:06:34;;;;;;;7.35;3.60;;;19.70;43.40;;;;;;4917572;29;20092;-54
2021/11/10 02:09:00;;;;;;;7.78;3.92;;;19.60;43.50;;;;;;4917488;29;20020;-49
2021/11/10 02:11:25;;;;;;;6.72;3.10;;;19.70;43.40;;;;;;4917333;29;20070;-49
2021/11/10 02:13:51;;;;;;;7.50;3.55;;;19.70;43.30;;;;;;4917309;29;20083;-49
2021/11/10 02:16:16;;;;;;;6.28;3.22;;;19.70;43.40;;;;;;4917602;29;20035;-53
2021/11/10 02:18:42;;;;;;;8.52;3.20;;;19.60;43.40;;;;;;4917327;29;20551;-49
2021/11/10 02:21:09;;;;;;;7.05;3.40;;;19.60;43.40;;;;;;4917495;29;20490;-48
2021/11/10 02:23:35;;;;;;;8.68;3.70;;;19.60;43.40;;;;;;4917205;29;20412;-49
2021/11/10 02:26:03;;;;;;;7.85;3.60;;;19.60;43.40;;;;;;4917367;29;20042;-50
2021/11/10 02:28:28;;;;;;;7.35;3.60;;;19.60;43.30;;;;;;4917072;29;20495;-48
2021/11/10 02:30:54;;;;;;;7.03;2.92;;;19.60;43.40;;;;;;4917213;29;20036;-51
2021/11/10 02:33:29;;;;;;;6.90;3.33;;;19.60;43.30;;;;;;4917098;29;20035;-48
2021/11/10 02:36:03;;;;;;;6.22;3.38;;;19.60;43.20;;;;;;4915776;29;20430;-48
2021/11/10 02:38:29;;;;;;;7.60;3.53;;;19.60;43.20;;;;;;4916743;29;20044;-49
2021/11/10 02:40:57;;;;;;;10.40;3.28;;;19.60;43.30;;;;;;4917183;29;20190;-51
2021/11/10 02:43:23;;;;;;;8.85;3.47;;;19.60;43.30;;;;;;4917225;29;20028;-50
2021/11/10 02:45:49;;;;;;;8.55;3.60;;;19.60;43.20;;;;;;4917076;29;20091;-51
2021/11/10 02:48:16;;;;;;;7.05;3.33;;;19.60;43.20;;;;;;4916881;29;20468;-53
2021/11/10 02:50:42;;;;;;;7.53;3.75;;;19.60;43.10;;;;;;4916875;29;20514;-53
2021/11/10 02:53:08;;;;;;;7.53;3.45;;;19.60;43.10;;;;;;4916829;29;20500;-50
2021/11/10 02:55:33;;;;;;;5.85;3.08;;;19.60;43.00;;;;;;4917114;29;20035;-49
2021/11/10 02:58:00;;;;;;;7.15;3.33;;;19.60;43.20;;;;;;4916903;29;20036;-48
2021/11/10 03:00:27;;;;;;;6.72;3.28;;;19.60;43.20;;;;;;4917058;29;20028;-50
2021/11/10 03:02:54;;;;;;;7.30;3.67;;;19.60;43.20;;;;;;4916730;29;20119;-48
2021/11/10 03:05:24;;;;;;;7.40;3.30;;;19.60;43.00;;;;;;4916761;29;20035;-51
2021/11/10 03:07:49;;;;;;;6.55;3.10;;;19.60;43.00;;;;;;4917001;29;20047;-52
2021/11/10 03:10:15;;;;;;;7.97;3.40;;;19.60;43.10;;;;;;4916975;29;20032;-49
2021/11/10 03:12:41;;;;;;;6.47;2.83;;;19.60;43.10;;;;;;4916709;29;20080;-51
2021/11/10 03:15:08;;;;;;;6.90;3.10;;;19.60;43.10;;;;;;4916861;29;20115;-48
2021/11/10 03:17:34;;;;;;;6.72;3.38;;;19.60;43.00;;;;;;4916670;29;20039;-49
2021/11/10 03:20:01;;;;;;;6.82;2.70;;;19.60;43.10;;;;;;4916847;29;20076;-49
2021/11/10 03:22:27;;;;;;;7.15;3.47;;;19.60;43.10;;;;;;4916831;29;20132;-54
2021/11/10 03:24:52;;;;;;;7.80;3.40;;;19.50;43.00;;;;;;4916827;29;20125;-50
2021/11/10 03:27:18;;;;;;;7.72;3.50;;;19.60;43.00;;;;;;4916698;29;20111;-52
2021/11/10 03:29:51;;;;;;;7.30;3.10;;;19.50;42.90;;;;;;4916615;29;20075;-52
2021/11/10 03:32:18;;;;;;;7.25;3.40;;;19.50;42.90;;;;;;4916858;29;20425;-52
2021/11/10 03:34:46;;;;;;;8.80;3.10;;;19.60;42.90;;;;;;4916537;29;20389;-48
2021/11/10 03:37:12;;;;;;;5.60;2.80;;;19.50;43.10;;;;;;4916481;29;20076;-50
2021/11/10 03:39:38;;;;;;;7.10;3.08;;;19.50;43.00;;;;;;4916430;29;20044;-49
2021/11/10 03:42:03;;;;;;;5.68;2.90;;;19.60;43.00;;;;;;4916504;29;20079;-50
2021/11/10 03:44:29;;;;;;;6.70;3.45;;;19.50;42.90;;;;;;4916434;29;20032;-49
2021/11/10 03:46:55;;;;;;;7.40;2.83;;;19.50;42.90;;;;;;4916380;29;20031;-49
2021/11/10 03:49:21;;;;;;;8.43;2.72;;;19.50;42.80;;;;;;4916647;29;20384;-50
2021/11/10 03:51:47;;;;;;;6.13;2.95;;;19.50;42.90;;;;;;4919650;29;20061;-52
2021/11/10 03:54:14;;;;;;;5.72;2.65;;;19.50;42.90;;;;;;4920187;29;20032;-49
2021/11/10 03:56:39;;;;;;;8.18;2.90;;;19.50;42.80;;;;;;4919908;29;20034;-49
2021/11/10 03:59:05;;;;;;;8.23;3.35;;;19.50;42.90;;;;;;4919823;29;20251;-48
2021/11/10 04:01:31;;;;;;;5.85;2.53;;;19.50;42.80;;;;;;4919854;29;20028;-49
2021/11/10 04:03:56;;;;;;;7.28;2.95;;;19.50;42.80;;;;;;4919627;29;20044;-48
2021/11/10 04:06:22;;;;;;;8.15;3.28;;;19.50;42.80;;;;;;4919884;29;20024;-54
2021/11/10 04:08:48;;;;;;;6.03;2.70;;;19.50;42.80;;;;;;4919976;29;20079;-54
2021/11/10 04:11:13;;;;;;;6.22;2.70;;;19.50;42.80;;;;;;4919933;29;20476;-54
2021/11/10 04:13:39;;;;;;;5.55;2.60;;;19.50;42.80;;;;;;4919551;29;20028;-48
2021/11/10 04:16:05;;;;;;;5.93;2.63;;;19.50;42.70;;;;;;4919522;29;20042;-48
2021/11/10 04:18:33;;;;;;;7.00;2.80;;;19.50;42.80;;;;;;4919342;29;20047;-49
2021/11/10 04:21:04;;;;;;;6.15;2.95;;;19.50;42.70;;;;;;4919659;29;20038;-49
2021/11/10 04:23:32;;;;;;;5.95;2.85;;;19.50;42.70;;;;;;4919487;29;20056;-49
2021/11/10 04:26:03;;;;;;;5.68;2.65;;;19.50;42.70;;;;;;4919630;29;20032;-48
2021/11/10 04:28:29;;;;;;;7.35;3.17;;;19.50;42.70;;;;;;4919691;29;20059;-50
2021/11/10 04:30:54;;;;;;;7.78;3.53;;;19.50;42.70;;;;;;4919464;29;20024;-53
2021/11/10 04:33:21;;;;;;;6.68;2.65;;;19.50;42.70;;;;;;4919416;29;20383;-49
2021/11/10 04:35:47;;;;;;;8.63;2.78;;;19.50;42.60;;;;;;4919161;29;20577;-50
2021/11/10 04:38:13;;;;;;;6.15;2.70;;;19.50;42.60;;;;;;4919121;29;20371;-48
2021/11/10 04:40:39;;;;;;;7.00;2.83;;;19.50;42.60;;;;;;4919187;29;20039;-52
2021/11/10 04:43:05;;;;;;;8.13;2.53;;;19.50;42.60;;;;;;4919093;29;20032;-48
2021/11/10 04:45:35;;;;;;;7.38;2.90;;;19.50;42.60;;;;;;4919303;29;20038;-49
2021/11/10 04:48:02;;;;;;;6.10;2.60;;;19.50;42.60;;;;;;4919331;29;20452;-48
2021/11/10 04:50:27;;;;;;;7.25;2.90;;;19.50;42.50;;;;;;4919292;29;20032;-51
2021/11/10 04:52:54;;;;;;;6.38;2.67;;;19.50;42.60;;;;;;4919262;29;20486;-49
2021/11/10 04:55:19;;;;;;;6.53;2.80;;;19.50;42.60;;;;;;4918838;29;20388;-54
2021/11/10 04:57:45;;;;;;;6.50;2.90;;;19.50;42.50;;;;;;4918778;29;20031;-53
2021/11/10 05:00:12;;;;;;;8.60;3.17;;;19.50;42.60;;;;;;4918733;29;20079;-50
2021/11/10 05:02:39;;;;;;;7.38;3.17;;;19.50;42.60;;;;;;4918071;29;20104;-51
2021/11/10 05:05:06;;;;;;;5.95;3.00;;;19.50;42.50;;;;;;4918994;29;20058;-48
2021/11/10 05:07:32;;;;;;;5.45;2.65;;;19.50;42.50;;;;;;4918694;29;20024;-48
2021/11/10 05:09:58;;;;;;;6.15;2.55;;;19.50;42.50;;;;;;4918870;29;20086;-51
2021/11/10 05:12:24;;;;;;;5.63;2.53;;;19.50;42.50;;;;;;4918562;29;20040;-51
2021/11/10 05:14:55;;;;;;;6.22;2.85;;;19.50;42.50;;;;;;4918795;29;20028;-48
2021/11/10 05:17:21;;;;;;;6.65;2.80;;;19.50;42.40;;;;;;4918537;29;20110;-48
2021/11/10 05:19:47;;;;;;;6.25;2.63;;;19.50;42.50;;;;;;4918638;29;20040;-48
2021/11/10 05:22:14;;;;;;;6.63;2.60;;;19.50;42.40;;;;;;4918485;29;20031;-48
2021/11/10 05:24:39;;;;;;;6.10;2.47;;;19.50;42.40;;;;;;4918322;29;20036;-50
2021/11/10 05:27:05;;;;;;;6.40;2.75;;;19.50;42.40;;;;;;4918203;29;20495;-52
2021/11/10 05:29:31;;;;;;;5.75;2.70;;;19.50;42.20;;;;;;4918437;29;20029;-51
2021/11/10 05:31:56;;;;;;;7.22;2.75;;;19.60;42.20;;;;;;4918151;29;20040;-52
2021/11/10 05:34:22;;;;;;;6.70;2.75;;;19.60;42.20;;;;;;4918300;29;20028;-53
2021/11/10 05:36:47;;;;;;;7.50;3.08;;;19.60;42.20;;;;;;4918161;29;20024;-49
2021/11/10 05:39:13;;;;;;;6.30;2.63;;;19.60;42.20;;;;;;4917975;29;20048;-50
2021/11/10 05:41:38;;;;;;;7.55;2.40;;;19.70;42.20;;;;;;4917931;29;20377;-49
2021/11/10 05:44:04;;;;;;;5.90;2.70;;;19.70;42.00;;;;;;4918209;29;20028;-51
2021/11/10 05:46:30;;;;;;;4.75;2.22;;;19.70;41.90;;;;;;4918182;29;20020;-52
2021/11/10 05:48:55;;;;;;;7.50;2.70;;;19.70;42.10;;;;;;4918100;29;20028;-49
2021/11/10 05:51:21;;;;;;;6.65;2.50;;;19.70;42.00;;;;;;4917828;29;20472;-49
2021/11/10 05:53:48;;;;;;;6.78;2.40;;;19.80;42.10;;;;;;4917976;29;20036;-49
2021/11/10 05:56:19;;;;;;;6.15;2.40;;;19.80;41.90;;;;;;4917677;29;20129;-50
2021/11/10 05:58:45;;;;;;;6.07;2.47;;;19.80;41.90;;;;;;4917924;29;20480;-48
2021/11/10 06:01:11;;;;;;;5.65;2.53;;;19.80;41.90;;;;;;4917903;29;20032;-52
2021/11/10 06:03:36;;;;;;;6.65;2.67;;;19.80;41.80;;;;;;4917563;29;20052;-50
2021/11/10 06:06:02;;;;;;;6.57;2.65;;;19.80;42.00;;;;;;4917592;29;20511;-53
2021/11/10 06:08:28;;;;;;;6.03;2.67;;;19.80;41.90;;;;;;4917789;29;20049;-54
2021/11/10 06:10:54;;;;;;;5.22;2.20;;;19.90;42.00;;;;;;4917412;29;20032;-51
2021/11/10 06:13:19;;;;;;;5.82;2.15;;;19.80;41.90;;;;;;4916992;29;20020;-50
2021/11/10 06:15:45;;;;;;;5.82;2.28;;;19.80;41.90;;;;;;4917122;29;20383;-51
2021/11/10 06:18:10;;;;;;;8.10;2.88;;;19.90;42.00;;;;;;4917271;29;20032;-50
2021/11/10 06:20:36;;;;;;;5.32;2.35;;;19.80;41.70;;;;;;4917519;29;20468;-49
2021/11/10 06:23:03;;;;;;;4.30;1.98;;;19.80;41.90;;;;;;4917462;29;20032;-51
2021/11/10 06:25:29;;;;;;;6.47;2.88;;;19.90;41.70;;;;;;4917067;29;20043;-49
2021/11/10 06:27:54;;;;;;;5.53;2.30;;;19.90;41.70;;;;;;4917221;29;20032;-50
2021/11/10 06:30:20;;;;;;;5.80;2.65;;;19.90;41.70;;;;;;4917089;29;20032;-48
2021/11/10 06:32:46;;;;;;;7.85;2.58;;;19.90;41.80;;;;;;4917089;29;20464;-49
2021/11/10 06:35:13;;;;;;;5.95;2.60;;;19.90;41.70;;;;;;4917649;29;20032;-49
2021/11/10 06:37:38;;;;;;;5.93;2.88;;;19.90;41.60;;;;;;4917074;29;20036;-50
2021/11/10 06:40:05;;;;;;;5.75;2.67;;;19.90;41.70;;;;;;4917234;29;20075;-50
2021/11/10 06:42:31;;;;;;;6.50;2.40;;;19.90;41.70;;;;;;4917068;29;20071;-53
2021/11/10 06:44:57;;;;;;;7.32;2.63;;;19.90;41.60;;;;;;4917265;29;20484;-52
2021/11/10 06:47:23;;;;;;;4.70;2.22;;;19.90;41.70;;;;;;4917090;29;20070;-48
2021/11/10 06:49:49;;;;;;;6.20;2.10;;;19.90;41.60;;;;;;4917021;29;20035;-50
2021/11/10 06:52:14;;;;;;;5.80;2.70;;;20.00;41.60;;;;;;4917062;29;20032;-49
2021/11/10 06:54:40;;;;;;;5.03;2.20;;;19.90;41.60;;;;;;4916656;29;20020;-50
2021/11/10 06:57:06;;;;;;;5.68;2.35;;;19.90;41.80;;;;;;4917128;29;20033;-51
2021/11/10 06:59:31;;;;;;;6.72;2.83;;;19.90;41.60;;;;;;4916687;29;20369;-49
2021/11/10 07:01:57;;;;;;;5.15;2.40;;;20.00;41.60;;;;;;4916599;29;20104;-51
2021/11/10 07:04:22;;;;;;;6.07;2.80;;;19.90;41.50;;;;;;4916696;29;20138;-51
2021/11/10 07:06:48;;;;;;;6.80;2.33;;;19.90;41.50;;;;;;4916946;29;20024;-51
2021/11/10 07:09:13;;;;;;;9.85;3.13;;;19.90;41.40;;;;;;4916689;29;20039;-49
2021/11/10 07:11:39;;;;;;;5.40;2.50;;;19.90;41.40;;;;;;4916635;29;20021;-54
2021/11/10 07:14:07;;;;;;;5.97;2.47;;;20.00;41.40;;;;;;4916859;29;20119;-52
2021/11/10 07:16:33;;;;;;;6.25;2.50;;;20.00;41.50;;;;;;4916656;29;20024;-49
2021/11/10 07:18:59;;;;;;;6.57;2.85;;;19.90;41.50;;;;;;4914600;29;20135;-51
2021/11/10 07:21:25;;;;;;;5.30;2.47;;;19.90;41.40;;;;;;4914132;29;20035;-56
2021/11/10 07:23:51;;;;;;;7.68;2.58;;;19.90;41.80;;;;;;4915824;29;20060;-51
2021/11/10 07:26:17;;;;;;;5.07;2.10;;;20.00;41.90;;;;;;4923400;29;20028;-50
2021/11/10 07:28:43;;;;;;;5.97;2.45;;;20.00;42.00;;;;;;4914125;29;20032;-50
2021/11/10 07:31:08;;;;;;;6.03;2.78;;;20.00;41.90;;;;;;4917493;29;20444;-49
2021/11/10 07:33:34;;;;;;;7.63;2.95;;;20.00;41.90;;;;;;4918256;29;20036;-51
2021/11/10 07:35:59;;;;;;;6.10;2.55;;;20.00;41.50;;;;;;4915398;29;20028;-49
2021/11/10 07:38:25;;;;;;;5.40;2.45;;;20.00;41.50;;;;;;4918848;29;20479;-50
2021/11/10 07:40:55;;;;;;;6.13;2.70;;;20.00;41.50;;;;;;4918373;29;20032;-52
2021/11/10 07:43:26;;;;;;;6.03;2.40;;;20.00;41.70;;;;;;4917588;29;20032;-53
2021/11/10 07:45:56;;;;;;;5.18;2.35;;;20.00;41.60;;;;;;4918857;29;20368;-50
2021/11/10 07:48:22;;;;;;;5.70;2.35;;;20.00;41.60;;;;;;4918286;29;20039;-52
2021/11/10 07:50:48;;;;;;;8.48;2.70;;;20.00;41.90;;;;;;4926012;29;20025;-50
2021/11/10 07:53:13;;;;;;;5.90;2.92;;;20.00;41.60;;;;;;4918238;29;20032;-52
2021/11/10 07:55:39;;;;;;;5.78;2.25;;;20.00;41.60;;;;;;4917622;29;20400;-52
2021/11/10 07:58:05;;;;;;;5.57;2.53;;;20.10;41.80;;;;;;4917957;29;20047;-52
2021/11/10 08:00:31;;;;;;;7.43;2.90;;;20.10;41.60;;;;;;4917450;29;20024;-51
2021/11/10 08:02:57;;;;;;;6.28;2.65;;;20.10;41.80;;;;;;4918703;29;20063;-55
2021/11/10 08:05:22;;;;;;;5.78;2.58;;;20.10;41.60;;;;;;4918393;29;20123;-52
2021/11/10 08:07:48;;;;;;;6.15;2.53;;;20.10;41.60;;;;;;4917522;29;20028;-55
2021/11/10 08:10:15;;;;;;;7.43;2.65;;;20.10;41.70;;;;;;4916964;29;20046;-51
2021/11/10 08:12:41;;;;;;;6.03;2.78;;;20.10;41.70;;;;;;4917830;29;20455;-54
2021/11/10 08:15:12;;;;;;;5.43;2.55;;;20.10;41.70;;;;;;4916877;29;20032;-53
2021/11/10 08:17:39;;;;;;;7.70;2.78;;;20.10;41.80;;;;;;4918148;29;20076;-52
2021/11/10 08:20:07;;;;;;;6.65;2.65;;;20.10;41.70;;;;;;4918118;29;20528;-53
2021/11/10 08:22:33;;;;;;;5.85;2.90;;;20.10;41.80;;;;;;4918423;29;20043;-51
2021/11/10 08:24:59;;;;;;;5.55;2.28;;;20.10;41.90;;;;;;4910735;29;20040;-52
2021/11/10 08:27:24;;;;;;;5.32;2.60;;;20.10;42.00;;;;;;4918167;29;20039;-52
2021/11/10 08:29:50;;;;;;;7.43;2.53;;;20.10;41.90;;;;;;4918170;29;20118;-56
2021/11/10 08:32:16;;;;;;;4.70;2.28;;;20.10;42.10;;;;;;4914609;29;20107;-51
2021/11/10 08:34:42;;;;;;;6.85;2.97;;;20.10;42.00;;;;;;4915783;29;20131;-53
2021/11/10 08:37:08;;;;;;;5.78;2.72;;;20.10;42.00;;;;;;4915603;29;20496;-52
2021/11/10 08:39:34;;;;;;;5.88;2.60;;;20.10;42.00;;;;;;4917573;29;20047;-52
2021/11/10 08:42:01;;;;;;;5.70;2.83;;;20.10;42.10;;;;;;4917510;29;20032;-50
2021/11/10 08:44:27;;;;;;;6.50;2.50;;;20.10;42.10;;;;;;4909055;29;20088;-50
2021/11/10 08:46:56;;;;;;;5.75;2.53;;;20.10;41.90;;;;;;4908218;29;20372;-53
2021/11/10 08:49:22;;;;;;;6.60;2.63;;;20.20;41.90;;;;;;4917224;29;20024;-54
2021/11/10 08:51:48;;;;;;;6.68;2.90;;;20.20;42.00;;;;;;4915745;29;20047;-56
2021/11/10 08:54:13;;;;;;;5.88;2.83;;;20.20;42.10;;;;;;4917064;29;20028;-54
2021/11/10 08:56:39;;;;;;;6.20;2.85;;;20.20;41.90;;;;;;4917418;29;20087;-55
2021/11/10 08:59:05;;;;;;;7.25;2.85;;;20.20;42.00;;;;;;4917088;29;20074;-51
2021/11/10 09:01:32;;;;;;;5.25;2.35;;;20.20;42.10;;;;;;4915919;29;20054;-54
2021/11/10 09:03:58;;;;;;;4.63;2.05;;;20.20;42.10;;;;;;4917393;29;20056;-52
2021/11/10 09:06:23;;;;;;;6.53;2.47;;;20.20;42.20;;;;;;4917450;29;20032;-55
2021/11/10 09:08:49;;;;;;;5.90;2.47;;;20.20;42.10;;;;;;4917369;29;20091;-52
2021/11/10 09:11:15;;;;;;;8.25;2.97;;;20.30;42.00;;;;;;4916138;29;20114;-50
2021/11/10 09:13:41;;;;;;;7.38;3.00;;;20.30;42.00;;;;;;4917346;29;20159;-52
2021/11/10 09:16:07;;;;;;;6.85;2.60;;;20.20;42.20;;;;;;4916004;29;20032;-51
2021/11/10 09:18:32;;;;;;;7.20;2.83;;;20.20;42.10;;;;;;4900531;29;20064;-52
2021/11/10 09:20:58;;;;;;;6.47;2.50;;;20.20;42.00;;;;;;4917281;29;20044;-49
2021/11/10 09:23:23;;;;;;;7.55;2.60;;;20.30;42.20;;;;;;4917405;29;20024;-52
2021/11/10 09:25:50;;;;;;;6.25;2.72;;;20.30;42.10;;;;;;4904808;29;20412;-49
2021/11/10 09:28:19;;;;;;;9.00;2.55;;;20.30;42.10;;;;;;4914033;29;20064;-49
2021/11/10 09:30:49;;;;;;;5.82;2.33;;;20.30;42.20;;;;;;4916710;29;20080;-49
2021/11/10 09:33:15;;;;;;;5.57;2.60;;;20.30;42.10;;;;;;4915142;29;20083;-49
2021/11/10 09:35:42;;;;;;;6.80;2.88;;;20.40;42.20;;;;;;4917035;29;20032;-54
2021/11/10 09:38:08;;;;;;;5.47;2.47;;;20.30;42.10;;;;;;4916770;29;20095;-50
2021/11/10 09:40:37;;;;;;;6.55;2.60;;;20.40;42.20;;;;;;4916932;29;20036;-54
2021/11/10 09:43:04;;;;;;;7.30;3.13;;;20.30;42.30;;;;;;4916680;29;20608;-49
2021/11/10 09:45:33;;;;;;;7.22;2.15;;;20.30;42.20;;;;;;4901809;29;20556;-53
2021/11/10 09:48:04;;;;;;;6.57;2.75;;;20.30;42.20;;;;;;4915383;29;20055;-50
2021/11/10 09:50:31;;;;;;;6.78;2.90;;;20.30;42.30;;;;;;4917135;29;20024;-51
2021/11/10 09:52:58;;;;;;;5.47;2.63;;;20.30;42.40;;;;;;4916541;29;20028;-50
2021/11/10 09:55:27;;;;;;;7.57;2.50;;;20.30;42.40;;;;;;4916633;29;20048;-50
2021/11/10 09:57:53;;;;;;;7.88;2.88;;;20.30;42.50;;;;;;4915120;29;20029;-49
2021/11/10 10:00:26;;;;;;;7.25;3.05;;;20.30;42.40;;;;;;4916616;29;20032;-51
2021/11/10 10:02:52;;;;;;;6.43;2.85;;;20.30;42.50;;;;;;4916317;29;20047;-51
2021/11/10 10:05:21;;;;;;;6.50;2.70;;;20.30;42.50;;;;;;4914644;29;20086;-50
2021/11/10 10:07:52;;;;;;;5.75;2.45;;;20.20;42.50;;;;;;4916224;29;20485;-51
2021/11/10 10:10:18;;;;;;;6.28;2.85;;;20.30;42.60;;;;;;4916320;29;20107;-52
2021/11/10 10:12:43;;;;;;;7.30;2.63;;;20.30;42.50;;;;;;4916760;29;20028;-51
2021/11/10 10:15:13;;;;;;;9.63;2.65;;;20.30;42.50;;;;;;4905536;29;20111;-51
2021/11/10 10:17:46;;;;;;;8.13;2.83;;;20.30;42.60;;;;;;4915935;29;20412;-51
2021/11/10 10:20:33;;;;;;;6.18;2.50;;;20.30;42.50;;;;;;4914261;29;20044;-49
2021/11/10 10:23:02;;;;;;;6.55;3.13;;;20.30;42.50;;;;;;4902939;29;20035;-51
2021/11/10 10:25:38;;;;;;;5.55;2.58;;;20.30;42.50;;;;;;4908788;29;20027;-49
2021/11/10 10:28:04;;;;;;;6.30;2.55;;;20.30;42.50;;;;;;4915684;29;20020;-51
2021/11/10 10:30:34;;;;;;;7.60;2.67;;;20.30;42.60;;;;;;4916222;29;20031;-52
2021/11/10 10:33:02;;;;;;;6.72;2.40;;;20.30;42.50;;;;;;4915699;29;20036;-51
2021/11/10 10:35:44;;;;;;;6.22;2.38;;;20.30;42.40;;;;;;4916149;29;20083;-51
2021/11/10 10:38:16;;;;;;;6.25;2.30;;;20.30;42.50;;;;;;4914112;29;20044;-52
2021/11/10 10:40:46;;;;;;;11.05;3.20;;;20.30;42.40;;;;;;4914256;29;20052;-50
2021/11/10 10:43:13;;;;;;;7.60;2.67;;;20.30;42.50;;;;;;4914281;29;20028;-49
2021/11/10 10:45:50;;;;;;;5.63;2.45;;;20.40;42.40;;;;;;4914808;29;20028;-53
2021/11/10 10:48:19;;;;;;;7.70;2.78;;;20.40;42.40;;;;;;4915711;29;20028;-53
2021/11/10 10:50:54;;;;;;;5.43;2.53;;;20.40;42.40;;;;;;4915596;29;20042;-51
2021/11/10 10:53:37;;;;;;;5.28;2.42;;;20.40;42.40;;;;;;4915374;29;20068;-51
2021/11/10 10:56:29;;;;;;;5.90;2.17;;;20.40;42.40;;;;;;4916203;29;20032;-52
2021/11/10 10:59:12;;;;;;;5.10;2.30;;;20.40;42.50;;;;;;4907070;29;20765;-50
2021/11/10 11:01:41;;;;;;;5.25;2.40;;;20.40;42.40;;;;;;4915044;29;20038;-51
2021/11/10 11:04:09;;;;;;;6.70;2.35;;;20.40;42.50;;;;;;4915605;29;20095;-51
2021/11/10 11:06:39;;;;;;;7.20;2.65;;;20.40;42.50;;;;;;4915256;29;20032;-51
2021/11/10 11:09:14;;;;;;;7.88;2.75;;;20.40;42.50;;;;;;4915306;29;20083;-52
2021/11/10 11:11:55;;;;;;;6.50;2.60;;;20.40;42.50;;;;;;4911425;29;20042;-49
2021/11/10 11:14:36;;;;;;;6.10;2.58;;;20.40;42.60;;;;;;4899242;29;20028;-51
2021/11/10 11:17:05;;;;;;;7.00;2.88;;;20.40;42.60;;;;;;4915146;29;20082;-51
2021/11/10 11:19:37;;;;;;;6.88;2.65;;;20.40;42.60;;;;;;4915388;29;20079;-51
2021/11/10 11:22:04;;;;;;;5.22;2.40;;;20.40;42.60;;;;;;4914837;29;20059;-49
2021/11/10 11:24:30;;;;;;;6.57;2.78;;;20.40;42.60;;;;;;4911899;29;20104;-54
2021/11/10 11:27:11;;;;;;;6.13;2.20;;;20.40;42.70;;;;;;4914513;29;20120;-56
2021/11/10 11:29:36;;;;;;;3.95;2.20;;;20.40;42.60;;;;;;4914814;29;20036;-54
2021/11/10 11:32:17;;;;;;;8.40;2.45;;;20.40;42.60;;;;;;4915267;29;20032;-51
2021/11/10 11:34:49;;;;;;;6.28;2.70;;;20.40;42.70;;;;;;4907660;29;20542;-51
2021/11/10 11:37:15;;;;;;;6.00;2.33;;;20.30;42.70;;;;;;4896520;29;20037;-53
2021/11/10 11:39:40;;;;;;;5.50;2.28;;;20.40;42.80;;;;;;4900472;29;20043;-49
2021/11/10 11:42:07;;;;;;;5.97;2.33;;;20.40;42.70;;;;;;4896479;29;20032;-54
2021/11/10 11:44:35;;;;;;;5.32;2.40;;;20.40;42.70;;;;;;4911983;29;20043;-50
2021/11/10 11:47:01;;;;;;;7.25;2.88;;;20.40;42.70;;;;;;4915071;29;20060;-51
2021/11/10 11:49:27;;;;;;;5.25;2.03;;;20.40;42.80;;;;;;4905682;29;20021;-53
2021/11/10 11:51:52;;;;;;;5.43;2.33;;;20.40;42.80;;;;;;4914823;29;20076;-52
2021/11/10 11:54:18;;;;;;;6.50;2.28;;;20.40;42.80;;;;;;4912836;29;20115;-55
2021/11/10 11:56:44;;;;;;;5.85;2.22;;;20.30;42.80;;;;;;4900546;29;20039;-55
2021/11/10 11:59:12;;;;;;;4.90;2.50;;;20.30;42.80;;;;;;4915219;29;20054;-52
2021/11/10 12:01:38;;;;;;;6.47;2.13;;;20.40;42.80;;;;;;4913377;29;20031;-52
2021/11/10 12:04:09;;;;;;;5.65;2.30;;;20.30;42.80;;;;;;4914644;29;20036;-50
2021/11/10 12:06:45;;;;;;;7.45;2.47;;;20.30;42.80;;;;;;4913582;29;20024;-50
2021/11/10 12:09:21;;;;;;;5.93;2.13;;;20.30;42.90;;;;;;4914984;29;20029;-52
2021/11/10 12:11:53;;;;;;;5.70;2.25;;;20.30;42.90;;;;;;4916118;29;20111;-49
2021/11/10 12:14:21;;;;;;;6.25;2.45;;;20.40;42.80;;;;;;4917643;29;20171;-50
2021/11/10 12:16:53;;;;;;;4.63;1.98;;;20.40;42.80;;;;;;4917382;29;20032;-51
2021/11/10 12:19:24;;;;;;;7.00;2.20;;;20.40;42.80;;;;;;4917466;29;20040;-49
2021/11/10 12:21:59;;;;;;;5.40;2.35;;;20.40;42.90;;;;;;4918148;29;20116;-55
2021/11/10 12:24:39;;;;;;;5.97;2.17;;;20.30;42.90;;;;;;4916123;29;20036;-51
2021/11/10 12:27:13;;;;;;;4.40;1.85;;;20.30;42.90;;;;;;4918397;29;20032;-51
2021/11/10 12:30:06;;;;;;;6.05;2.25;;;20.40;42.90;;;;;;4923778;29;20067;-51
2021/11/10 12:32:35;;;;;;;4.72;2.00;;;20.30;43.00;;;;;;4917356;29;20510;-51
2021/11/10 12:35:03;;;;;;;6.65;2.60;;;20.30;42.90;;;;;;4917414;29;20052;-53
2021/11/10 12:37:30;;;;;;;5.32;2.30;;;20.30;43.00;;;;;;4917839;29;20028;-50
2021/11/10 12:40:07;;;;;;;5.45;2.05;;;20.30;43.00;;;;;;4916975;29;20036;-53
2021/11/10 12:42:58;;;;;;;4.35;2.00;;;20.40;43.00;;;;;;4914364;29;20028;-50
2021/11/10 12:45:38;;;;;;;5.70;2.35;;;20.40;43.00;;;;;;4916783;29;20071;-50
2021/11/10 12:48:26;;;;;;;5.43;2.40;;;20.30;43.10;;;;;;4917955;29;20024;-50